Time;durP1;ratioP1;P1;durP2;ratioP2;P2;SDS_P1;SDS_P2;PMS_P1;PMS_P2;Temp;Humidity;BMP_temperature;BMP_pressure;BME280_temperature;BME280_humidity;BME280_pressure;Samples;Min_cycle;Max_cycle;Signal;HPM_P1;HPM_P2
2022/07/15 00:00:28;;;;;;;3.17;1.50;;;12.90;99.90;;;;;;5084492;28;20170;-72
2022/07/15 00:02:54;;;;;;;6.37;1.20;;;13.00;99.90;;;;;;5094631;28;20885;-75
2022/07/15 00:05:20;;;;;;;2.13;1.43;;;13.00;99.90;;;;;;5087499;28;20182;-71
2022/07/15 00:07:46;;;;;;;6.17;1.63;;;13.00;99.90;;;;;;5083407;28;20189;-73
2022/07/15 00:10:14;;;;;;;2.97;1.77;;;12.90;99.90;;;;;;5088999;28;20428;-71
2022/07/15 00:12:59;;;;;;;1.73;1.10;;;12.90;99.90;;;;;;5072879;28;20412;-71
2022/07/15 00:15:27;;;;;;;2.20;1.00;;;12.90;99.90;;;;;;5081318;28;20434;-74
2022/07/15 00:17:53;;;;;;;2.60;1.60;;;13.00;99.90;;;;;;5095153;28;20395;-73
2022/07/15 00:20:20;;;;;;;2.10;1.20;;;13.00;99.90;;;;;;5088309;28;20431;-72
2022/07/15 00:22:47;;;;;;;5.60;1.53;;;13.00;99.90;;;;;;5074654;28;20432;-74
2022/07/15 00:25:13;;;;;;;2.83;1.60;;;13.00;99.90;;;;;;5077575;28;20474;-71
2022/07/15 00:28:12;;;;;;;6.77;1.17;;;13.00;99.90;;;;;;5079208;28;20446;-71
2022/07/15 00:30:40;;;;;;;8.20;1.90;;;13.00;99.90;;;;;;5041215;28;20440;-71
2022/07/15 00:33:07;;;;;;;3.83;1.70;;;12.90;99.90;;;;;;5073787;28;20387;-73
2022/07/15 00:35:34;;;;;;;1.83;1.43;;;12.90;99.90;;;;;;5085126;28;20438;-74
2022/07/15 00:38:01;;;;;;;4.20;1.50;;;12.90;99.90;;;;;;5094796;28;20407;-71
2022/07/15 00:40:27;;;;;;;4.07;1.50;;;12.90;99.90;;;;;;5080838;28;20403;-74
2022/07/15 00:42:53;;;;;;;3.33;1.30;;;12.80;99.90;;;;;;5079553;28;20424;-74
2022/07/15 00:45:22;;;;;;;6.43;2.10;;;12.80;99.90;;;;;;5094069;28;20773;-75
2022/07/15 00:47:50;;;;;;;6.90;1.50;;;12.80;99.90;;;;;;5086734;28;20444;-74
2022/07/15 00:50:17;;;;;;;5.20;1.43;;;12.80;99.90;;;;;;5074354;28;20375;-74
2022/07/15 00:53:07;;;;;;;4.23;1.70;;;12.80;99.90;;;;;;5078583;28;20398;-71
2022/07/15 00:55:39;;;;;;;2.20;1.27;;;12.90;99.90;;;;;;5090115;28;20532;-71
2022/07/15 00:58:07;;;;;;;2.60;1.37;;;12.80;99.90;;;;;;5081679;28;20398;-74
2022/07/15 01:00:33;;;;;;;1.83;1.73;;;12.80;99.90;;;;;;5094355;28;20518;-71
2022/07/15 01:03:01;;;;;;;2.87;1.30;;;12.90;99.90;;;;;;5086890;28;20383;-71
2022/07/15 01:05:27;;;;;;;1.77;1.17;;;12.90;99.90;;;;;;5073258;28;20406;-71
2022/07/15 01:07:53;;;;;;;2.13;1.13;;;13.00;99.90;;;;;;5074487;28;20933;-71
2022/07/15 01:10:21;;;;;;;8.00;1.53;;;13.00;99.90;;;;;;5073889;28;20452;-71
2022/07/15 01:12:48;;;;;;;1.50;1.23;;;13.10;99.90;;;;;;5077903;28;20436;-74
2022/07/15 01:15:14;;;;;;;1.93;1.30;;;13.10;99.90;;;;;;5073648;28;20420;-70
2022/07/15 01:17:40;;;;;;;3.23;1.40;;;13.10;99.90;;;;;;5087328;28;20423;-71
2022/07/15 01:20:08;;;;;;;5.27;1.13;;;13.10;99.90;;;;;;5093910;28;20731;-75
2022/07/15 01:22:34;;;;;;;1.37;1.20;;;13.20;99.90;;;;;;5080610;28;20922;-75
2022/07/15 01:25:00;;;;;;;1.70;1.30;;;13.10;99.90;;;;;;5072957;28;20462;-73
2022/07/15 01:27:27;;;;;;;6.00;1.47;;;13.20;99.90;;;;;;5083455;28;20398;-75
2022/07/15 01:29:53;;;;;;;2.40;1.57;;;13.20;99.90;;;;;;5076039;28;20213;-73
2022/07/15 01:32:18;;;;;;;1.40;1.30;;;13.20;99.90;;;;;;5081023;28;20429;-71
2022/07/15 01:34:48;;;;;;;2.10;1.17;;;13.30;99.90;;;;;;5093672;28;20190;-74
2022/07/15 01:37:14;;;;;;;3.83;1.30;;;13.30;99.90;;;;;;5086084;28;20190;-74
2022/07/15 01:39:40;;;;;;;3.00;1.50;;;13.30;99.90;;;;;;5073595;28;20389;-74
2022/07/15 01:42:06;;;;;;;2.20;1.73;;;13.30;99.90;;;;;;5076441;28;20420;-71
2022/07/15 01:44:32;;;;;;;3.00;1.50;;;13.40;99.90;;;;;;5071714;28;20647;-72
2022/07/15 01:46:57;;;;;;;5.90;1.53;;;13.40;99.90;;;;;;5088292;28;20177;-75
2022/07/15 01:49:25;;;;;;;2.70;1.40;;;13.40;99.90;;;;;;5093554;28;20669;-74
2022/07/15 01:51:55;;;;;;;1.30;1.10;;;13.30;99.90;;;;;;5079217;28;20261;-71
2022/07/15 01:54:26;;;;;;;1.20;1.10;;;13.40;99.90;;;;;;5072302;28;20465;-71
2022/07/15 01:56:53;;;;;;;3.57;1.37;;;13.30;99.90;;;;;;5086100;28;20422;-71
2022/07/15 01:59:22;;;;;;;2.80;1.40;;;13.30;99.90;;;;;;5093356;28;20370;-74
2022/07/15 02:01:49;;;;;;;3.43;1.17;;;13.30;99.90;;;;;;5089900;28;20434;-72
2022/07/15 02:04:15;;;;;;;1.37;1.10;;;13.40;99.90;;;;;;5084051;28;20442;-70
2022/07/15 02:06:41;;;;;;;4.13;1.80;;;13.40;99.90;;;;;;5073413;28;20488;-73
2022/07/15 02:09:08;;;;;;;1.20;1.10;;;13.50;99.90;;;;;;5092157;28;20407;-74
2022/07/15 02:11:34;;;;;;;5.20;1.10;;;13.50;99.90;;;;;;5083141;28;20917;-74
2022/07/15 02:14:01;;;;;;;3.17;1.50;;;13.50;99.90;;;;;;5072126;28;20785;-74
2022/07/15 02:16:31;;;;;;;4.90;1.20;;;13.50;99.90;;;;;;5079419;28;20486;-74
2022/07/15 02:18:57;;;;;;;2.20;1.40;;;13.50;99.90;;;;;;5093225;28;20383;-74
2022/07/15 02:21:26;;;;;;;3.90;1.23;;;13.50;99.90;;;;;;5085259;28;20428;-74
2022/07/15 02:23:52;;;;;;;4.23;1.50;;;13.60;99.90;;;;;;5071932;28;20437;-71
2022/07/15 02:26:18;;;;;;;4.30;1.20;;;13.50;99.90;;;;;;5076940;28;20426;-71
2022/07/15 02:28:44;;;;;;;2.03;1.00;;;13.50;99.90;;;;;;5092027;28;20415;-74
2022/07/15 02:31:09;;;;;;;3.67;1.50;;;13.50;99.90;;;;;;5074240;28;20182;-72
2022/07/15 02:33:35;;;;;;;4.00;1.33;;;13.40;99.90;;;;;;5071904;28;20520;-75
2022/07/15 02:36:01;;;;;;;2.63;1.60;;;13.50;99.90;;;;;;5087957;28;20259;-74
2022/07/15 02:38:26;;;;;;;6.30;1.30;;;13.50;99.90;;;;;;5075593;28;20174;-71
2022/07/15 02:40:52;;;;;;;3.23;1.40;;;13.50;99.90;;;;;;5087166;28;20178;-71
2022/07/15 02:43:18;;;;;;;3.27;1.40;;;13.60;99.90;;;;;;5091959;28;20241;-70
2022/07/15 02:45:44;;;;;;;2.07;1.20;;;13.60;99.90;;;;;;5079800;28;20175;-74
2022/07/15 02:48:09;;;;;;;3.37;1.10;;;13.60;99.90;;;;;;5072736;28;20170;-71
2022/07/15 02:50:35;;;;;;;8.87;1.47;;;13.60;99.90;;;;;;5083438;28;20177;-74
2022/07/15 02:53:03;;;;;;;2.67;0.90;;;13.60;99.90;;;;;;5090744;28;20453;-74
2022/07/15 02:55:29;;;;;;;2.23;1.60;;;13.60;99.90;;;;;;5084323;28;20197;-74
2022/07/15 02:57:55;;;;;;;6.30;1.40;;;13.50;99.90;;;;;;5076574;28;20503;-75
2022/07/15 03:00:21;;;;;;;1.70;1.20;;;13.50;99.90;;;;;;5084275;28;20502;-70
2022/07/15 03:02:48;;;;;;;2.67;1.23;;;13.50;99.90;;;;;;5091744;28;20177;-74
2022/07/15 03:05:13;;;;;;;2.73;1.40;;;13.50;99.90;;;;;;5083972;28;20801;-74
2022/07/15 03:07:40;;;;;;;2.60;1.23;;;13.50;99.90;;;;;;5076381;28;20384;-75
2022/07/15 03:10:07;;;;;;;1.50;1.17;;;13.60;99.90;;;;;;5085198;28;20542;-75
2022/07/15 03:12:33;;;;;;;5.43;1.27;;;13.60;99.90;;;;;;5095102;28;20453;-71
2022/07/15 03:15:00;;;;;;;4.60;1.73;;;13.60;99.90;;;;;;5084845;28;20988;-70
2022/07/15 03:17:26;;;;;;;5.70;1.67;;;13.60;99.90;;;;;;5075973;28;20423;-75
2022/07/15 03:19:52;;;;;;;5.47;1.53;;;13.60;99.90;;;;;;5084909;28;20386;-74
2022/07/15 03:22:17;;;;;;;3.57;1.30;;;13.50;99.90;;;;;;5095563;28;20399;-74
2022/07/15 03:24:43;;;;;;;3.53;1.40;;;13.50;99.90;;;;;;5088704;28;20198;-72
2022/07/15 03:27:09;;;;;;;2.80;1.80;;;13.60;99.90;;;;;;5090836;28;20268;-74
2022/07/15 03:29:36;;;;;;;2.10;1.10;;;13.60;99.90;;;;;;5090607;28;20178;-76
2022/07/15 03:32:01;;;;;;;3.73;1.87;;;13.50;99.90;;;;;;5074657;28;20411;-71
2022/07/15 03:34:27;;;;;;;2.60;1.13;;;13.50;99.90;;;;;;5078398;28;20518;-71
2022/07/15 03:36:54;;;;;;;4.73;1.73;;;13.50;99.90;;;;;;5095983;28;20778;-70
2022/07/15 03:39:21;;;;;;;10.93;1.80;;;13.60;99.90;;;;;;5094185;28;20408;-74
2022/07/15 03:41:47;;;;;;;4.87;1.60;;;13.50;99.90;;;;;;5089057;28;20978;-70
2022/07/15 03:44:13;;;;;;;6.63;0.90;;;13.60;99.90;;;;;;5073380;28;20428;-70
2022/07/15 03:46:39;;;;;;;2.33;1.47;;;13.60;99.90;;;;;;5075565;28;20174;-74
2022/07/15 03:49:05;;;;;;;5.80;1.73;;;13.60;99.90;;;;;;5074663;28;20432;-72
2022/07/15 03:51:32;;;;;;;4.57;1.27;;;13.70;99.90;;;;;;5094026;28;20458;-70
2022/07/15 03:53:59;;;;;;;1.73;1.20;;;13.60;99.90;;;;;;5094728;28;20408;-70
2022/07/15 03:56:26;;;;;;;1.83;1.33;;;13.70;99.90;;;;;;5078058;28;20419;-74
2022/07/15 03:58:51;;;;;;;2.07;1.10;;;13.60;99.90;;;;;;5084700;28;20798;-71
2022/07/15 04:01:17;;;;;;;3.83;1.67;;;13.50;99.90;;;;;;5079668;28;20497;-72
2022/07/15 04:03:43;;;;;;;2.30;1.67;;;13.50;99.90;;;;;;5074387;28;20546;-72
2022/07/15 04:06:09;;;;;;;4.87;1.73;;;13.60;99.90;;;;;;5078780;28;20264;-70
2022/07/15 04:08:35;;;;;;;6.77;1.83;;;13.70;99.90;;;;;;5074329;28;21030;-70
2022/07/15 04:11:01;;;;;;;4.80;1.40;;;13.60;99.90;;;;;;5075349;28;20658;-74
2022/07/15 04:13:26;;;;;;;2.60;1.60;;;13.60;99.90;;;;;;5073993;28;20522;-70
2022/07/15 04:15:52;;;;;;;4.30;1.77;;;13.70;99.90;;;;;;5076490;28;20335;-70
2022/07/15 04:18:18;;;;;;;3.23;1.33;;;13.80;99.90;;;;;;5075076;28;20166;-76
2022/07/15 04:20:43;;;;;;;2.53;2.33;;;13.80;99.90;;;;;;5078363;28;20178;-74
2022/07/15 04:23:09;;;;;;;1.10;1.00;;;13.80;99.90;;;;;;5073986;28;20177;-71
2022/07/15 04:25:35;;;;;;;4.43;1.27;;;13.80;99.90;;;;;;5074483;28;20277;-74
2022/07/15 04:28:01;;;;;;;1.90;1.30;;;13.90;99.90;;;;;;5075435;28;20630;-71
2022/07/15 04:30:26;;;;;;;5.10;1.30;;;13.90;99.90;;;;;;5087966;28;20435;-74
2022/07/15 04:32:52;;;;;;;2.80;1.20;;;13.90;99.90;;;;;;5073853;28;20170;-70
2022/07/15 04:35:18;;;;;;;1.53;1.40;;;13.80;99.90;;;;;;5081647;28;20220;-75
2022/07/15 04:37:44;;;;;;;4.60;1.80;;;13.90;99.90;;;;;;5094754;28;20203;-71
2022/07/15 04:40:10;;;;;;;2.33;1.30;;;14.00;99.90;;;;;;5093548;28;20177;-70
2022/07/15 04:42:36;;;;;;;10.83;1.30;;;14.10;99.90;;;;;;5092845;28;20169;-74
2022/07/15 04:45:02;;;;;;;2.13;1.30;;;14.10;99.90;;;;;;5093815;28;20388;-71
2022/07/15 04:47:28;;;;;;;2.80;1.17;;;14.20;99.90;;;;;;5080016;28;20487;-71
2022/07/15 04:52:46;;;;;;;4.53;1.30;;;14.30;99.90;;;;;;5087998;28;20473;-70
2022/07/15 04:55:12;;;;;;;7.03;1.63;;;14.40;99.90;;;;;;5094212;28;20447;-75
2022/07/15 04:57:38;;;;;;;2.13;0.97;;;14.40;99.90;;;;;;5078581;28;20517;-71
2022/07/15 05:00:05;;;;;;;2.13;1.40;;;14.40;99.90;;;;;;5074066;28;20371;-70
2022/07/15 05:02:30;;;;;;;5.83;1.33;;;14.40;99.90;;;;;;5085994;28;20936;-75
2022/07/15 05:04:56;;;;;;;5.43;1.20;;;14.50;99.90;;;;;;5094007;28;20419;-70
2022/07/15 05:07:22;;;;;;;1.50;1.03;;;14.50;99.90;;;;;;5081004;28;20276;-75
2022/07/15 05:09:48;;;;;;;2.57;1.13;;;14.50;99.90;;;;;;5073700;28;20913;-70
2022/07/15 05:12:13;;;;;;;1.63;1.00;;;14.50;99.90;;;;;;5082877;28;20192;-76
2022/07/15 05:14:40;;;;;;;3.10;1.53;;;14.70;99.90;;;;;;5094136;28;20599;-75
2022/07/15 05:17:07;;;;;;;3.83;1.10;;;14.60;99.90;;;;;;5081415;28;20201;-71
2022/07/15 05:19:33;;;;;;;7.43;1.20;;;14.70;99.90;;;;;;5072954;28;20414;-71
2022/07/15 05:21:59;;;;;;;2.00;1.40;;;14.70;99.90;;;;;;5080735;28;20425;-74
2022/07/15 05:24:25;;;;;;;1.83;1.10;;;14.70;99.90;;;;;;5093126;28;20430;-75
2022/07/15 05:26:51;;;;;;;2.90;1.43;;;14.70;99.90;;;;;;5084269;28;20460;-69
2022/07/15 05:29:17;;;;;;;3.53;1.20;;;14.70;99.90;;;;;;5073360;28;20400;-75
2022/07/15 05:31:43;;;;;;;2.80;1.40;;;14.60;99.90;;;;;;5076560;28;20703;-70
2022/07/15 05:34:09;;;;;;;3.80;1.47;;;14.60;99.90;;;;;;5072523;28;20190;-75
2022/07/15 05:36:35;;;;;;;5.70;1.47;;;14.70;99.90;;;;;;5073469;28;20937;-72
2022/07/15 05:39:01;;;;;;;2.80;1.37;;;14.80;99.90;;;;;;5082822;28;20424;-70
2022/07/15 05:41:27;;;;;;;1.83;1.20;;;14.70;99.90;;;;;;5084910;28;20589;-70
2022/07/15 05:43:52;;;;;;;3.53;1.70;;;14.70;99.90;;;;;;5072297;28;20474;-72
2022/07/15 05:46:18;;;;;;;2.30;1.20;;;14.70;99.90;;;;;;5078759;28;20181;-75
2022/07/15 05:48:44;;;;;;;1.40;1.30;;;14.60;99.90;;;;;;5086489;28;20189;-70
2022/07/15 05:51:09;;;;;;;2.10;1.60;;;14.60;99.90;;;;;;5073111;28;20605;-74
2022/07/15 05:53:35;;;;;;;2.67;1.57;;;14.70;99.90;;;;;;5080441;28;20565;-70
2022/07/15 05:56:01;;;;;;;1.17;1.07;;;14.80;99.90;;;;;;5092403;28;20204;-75
2022/07/15 05:58:26;;;;;;;3.07;1.10;;;14.90;99.90;;;;;;5083592;28;20845;-71
2022/07/15 06:00:53;;;;;;;2.10;1.17;;;15.00;99.90;;;;;;5091843;28;20191;-70
2022/07/15 06:03:18;;;;;;;2.80;1.33;;;15.00;99.90;;;;;;5072172;28;20169;-75
2022/07/15 06:05:44;;;;;;;4.97;1.10;;;15.00;99.90;;;;;;5073156;28;20815;-76
2022/07/15 06:08:10;;;;;;;2.33;1.20;;;15.10;99.90;;;;;;5091958;28;20177;-75
2022/07/15 06:10:37;;;;;;;4.43;1.33;;;15.20;99.90;;;;;;5093116;28;20474;-74
2022/07/15 06:13:03;;;;;;;5.13;2.00;;;15.30;99.20;;;;;;5088791;28;20427;-72
2022/07/15 06:15:29;;;;;;;4.30;1.00;;;15.40;97.20;;;;;;5093059;28;20499;-75
2022/07/15 06:17:56;;;;;;;3.00;1.87;;;15.40;94.00;;;;;;5075935;28;20417;-74
2022/07/15 06:20:22;;;;;;;5.40;1.20;;;15.50;94.10;;;;;;5072832;28;20483;-74
2022/07/15 06:22:48;;;;;;;4.30;1.60;;;15.60;94.10;;;;;;5086185;28;20515;-70
2022/07/15 06:25:13;;;;;;;4.10;1.20;;;15.60;94.10;;;;;;5093078;28;20502;-75
2022/07/15 06:27:39;;;;;;;3.20;1.03;;;15.60;94.20;;;;;;5089996;28;20439;-71
2022/07/15 06:30:06;;;;;;;1.77;1.03;;;15.70;94.10;;;;;;5093063;28;20696;-75
2022/07/15 06:32:32;;;;;;;1.90;1.00;;;15.70;90.40;;;;;;5090274;28;20565;-70
2022/07/15 06:34:58;;;;;;;1.70;1.00;;;15.80;80.00;;;;;;5092302;28;20991;-70
2022/07/15 06:37:24;;;;;;;2.70;1.03;;;15.90;75.60;;;;;;5079077;28;20206;-75
2022/07/15 06:39:49;;;;;;;2.63;1.20;;;15.90;55.00;;;;;;5075715;28;20527;-70
2022/07/15 06:42:15;;;;;;;1.63;1.30;;;15.80;51.40;;;;;;5075952;28;20174;-75
2022/07/15 06:44:40;;;;;;;4.63;1.33;;;16.00;57.90;;;;;;5077670;28;20190;-75
2022/07/15 06:47:07;;;;;;;2.63;1.07;;;15.90;49.60;;;;;;5076173;28;20190;-74
2022/07/15 06:49:36;;;;;;;6.10;1.10;;;16.00;51.00;;;;;;5076714;28;20185;-70
2022/07/15 06:52:02;;;;;;;1.23;0.83;;;16.10;41.60;;;;;;5076312;28;20933;-71
2022/07/15 06:54:28;;;;;;;1.20;1.00;;;16.10;32.60;;;;;;5075238;28;20421;-75
2022/07/15 06:56:54;;;;;;;3.17;0.93;;;16.20;34.50;;;;;;5076161;28;20673;-70
2022/07/15 06:59:20;;;;;;;1.20;0.90;;;16.30;28.70;;;;;;5094809;28;20173;-70
2022/07/15 07:01:46;;;;;;;4.17;1.07;;;16.30;24.80;;;;;;5096629;28;20161;-75
2022/07/15 07:04:12;;;;;;;1.53;0.87;;;16.20;21.30;;;;;;5095723;28;20522;-70
2022/07/15 07:06:38;;;;;;;4.43;0.97;;;16.30;33.20;;;;;;5096517;28;20158;-76
2022/07/15 07:09:04;;;;;;;1.93;1.07;;;16.30;25.60;;;;;;5096546;28;20381;-72
2022/07/15 07:11:30;;;;;;;1.10;1.00;;;16.20;19.10;;;;;;5094887;28;20264;-73
2022/07/15 07:13:56;;;;;;;2.57;1.33;;;16.10;21.00;;;;;;5095068;28;20442;-76
2022/07/15 07:16:22;;;;;;;2.37;1.03;;;16.00;18.50;;;;;;5096419;28;20193;-71
2022/07/15 07:18:50;;;;;;;3.93;1.20;;;16.10;21.90;;;;;;5094947;28;20411;-70
2022/07/15 07:21:16;;;;;;;3.03;1.40;;;16.10;22.90;;;;;;5096347;28;20621;-75
2022/07/15 07:23:42;;;;;;;1.40;1.20;;;16.00;19.00;;;;;;5095432;28;20834;-70
2022/07/15 07:26:09;;;;;;;2.73;1.10;;;15.90;13.70;;;;;;5093877;28;20431;-71
2022/07/15 07:28:35;;;;;;;1.90;1.00;;;16.00;18.30;;;;;;5093571;28;20226;-70
2022/07/15 07:31:01;;;;;;;3.43;1.00;;;16.10;18.80;;;;;;5095990;28;20961;-70
2022/07/15 07:33:27;;;;;;;3.30;1.30;;;16.10;16.70;;;;;;5095103;28;20404;-69
2022/07/15 07:35:53;;;;;;;2.20;1.17;;;16.30;21.60;;;;;;5096172;28;20455;-69
2022/07/15 07:38:20;;;;;;;2.73;1.10;;;16.50;25.80;;;;;;5096065;28;20392;-70
2022/07/15 07:40:48;;;;;;;1.77;0.93;;;16.60;19.00;;;;;;5095924;28;20396;-70
2022/07/15 07:43:15;;;;;;;4.07;2.80;;;16.80;25.20;;;;;;5093691;28;20427;-76
2022/07/15 07:45:41;;;;;;;1.87;0.80;;;16.90;20.50;;;;;;5094536;28;20411;-76
2022/07/15 07:48:07;;;;;;;1.87;1.10;;;17.00;21.90;;;;;;5095146;28;20493;-70
2022/07/15 07:50:33;;;;;;;1.83;1.30;;;17.10;20.90;;;;;;5094662;28;20173;-75
2022/07/15 07:52:58;;;;;;;3.33;1.23;;;17.20;19.30;;;;;;5094101;28;20178;-74
2022/07/15 07:55:24;;;;;;;6.13;1.13;;;17.10;18.10;;;;;;5093621;28;20288;-74
2022/07/15 07:57:53;;;;;;;2.17;1.03;;;17.30;21.70;;;;;;5093590;28;20165;-75
2022/07/15 08:00:19;;;;;;;1.77;1.00;;;17.40;21.30;;;;;;5095229;28;20396;-75
2022/07/15 08:02:46;;;;;;;9.40;1.30;;;17.50;20.30;;;;;;5094234;28;20411;-70
2022/07/15 08:05:13;;;;;;;2.50;0.90;;;17.50;11.60;;;;;;5094845;28;20476;-71
2022/07/15 08:07:39;;;;;;;2.17;1.13;;;17.40;9.40;;;;;;5094334;28;20951;-75
2022/07/15 08:10:06;;;;;;;3.80;1.03;;;17.30;11.00;;;;;;5093551;28;20443;-75
2022/07/15 08:12:32;;;;;;;3.27;0.90;;;17.40;17.90;;;;;;5094026;28;20832;-75
2022/07/15 08:14:59;;;;;;;2.90;1.23;;;17.50;13.60;;;;;;5094978;28;20900;-75
2022/07/15 08:17:25;;;;;;;5.80;1.10;;;17.60;6.40;;;;;;5094486;28;20508;-76
2022/07/15 08:19:50;;;;;;;6.70;1.60;;;17.60;1.00;;;;;;5094880;28;20876;-70
2022/07/15 08:22:16;;;;;;;2.97;1.20;;;17.60;1.00;;;;;;5092842;28;20180;-76
2022/07/15 08:24:42;;;;;;;3.00;0.83;;;17.80;1.00;;;;;;5093338;28;20259;-70
2022/07/15 08:27:08;;;;;;;1.10;0.80;;;17.90;1.00;;;;;;5094059;28;20252;-75
2022/07/15 08:29:34;;;;;;;1.60;1.00;;;18.00;1.00;;;;;;5092910;28;20219;-71
2022/07/15 08:32:00;;;;;;;5.93;1.03;;;18.10;1.00;;;;;;5094509;28;20396;-73
2022/07/15 08:34:26;;;;;;;1.23;0.80;;;17.90;1.00;;;;;;5093770;28;20423;-74
2022/07/15 08:36:52;;;;;;;4.60;0.80;;;17.80;1.00;;;;;;5093020;28;20456;-77
2022/07/15 08:39:18;;;;;;;3.63;1.00;;;17.70;1.00;;;;;;5094526;28;20165;-76
2022/07/15 08:41:45;;;;;;;1.00;0.80;;;17.40;1.00;;;;;;5094212;28;20683;-70
2022/07/15 08:44:10;;;;;;;3.70;1.23;;;17.30;1.00;;;;;;5092667;28;20212;-70
2022/07/15 08:46:36;;;;;;;3.30;1.07;;;17.20;1.00;;;;;;5092903;28;20927;-76
2022/07/15 08:49:07;;;;;;;3.30;1.30;;;17.10;1.00;;;;;;5093116;28;20174;-70
2022/07/15 08:51:37;;;;;;;1.40;0.90;;;17.20;1.00;;;;;;5092838;28;20177;-75
2022/07/15 08:54:02;;;;;;;3.30;1.47;;;17.50;1.00;;;;;;5093650;28;20502;-71
2022/07/15 08:56:28;;;;;;;1.40;0.80;;;17.60;1.00;;;;;;5094441;28;21035;-69
2022/07/15 08:58:55;;;;;;;1.07;0.70;;;17.50;1.00;;;;;;5094381;28;20211;-76
2022/07/15 09:01:21;;;;;;;1.30;0.80;;;17.60;1.00;;;;;;5094239;28;20392;-70
2022/07/15 09:03:46;;;;;;;1.50;1.00;;;17.80;1.00;;;;;;5091327;28;20439;-71
2022/07/15 09:06:33;;;;;;;2.37;0.83;;;17.70;1.00;;;;;;5092715;28;20261;-70
2022/07/15 09:09:30;;;;;;;2.87;0.70;;;18.00;1.00;;;;;;5094298;28;20281;-69
2022/07/15 09:12:06;;;;;;;1.47;0.60;;;18.30;1.00;;;;;;5094087;28;20419;-75
2022/07/15 09:14:35;;;;;;;1.47;0.80;;;18.40;1.00;;;;;;5093529;28;20431;-76
2022/07/15 09:17:10;;;;;;;1.50;0.93;;;18.40;1.00;;;;;;5094036;28;20799;-70
2022/07/15 09:20:16;;;;;;;3.33;0.70;;;18.50;1.00;;;;;;5091867;28;20828;-70
2022/07/15 09:22:50;;;;;;;0.80;0.60;;;18.70;1.00;;;;;;5090992;28;20419;-75
2022/07/15 09:25:15;;;;;;;1.70;0.80;;;18.70;1.00;;;;;;5092814;28;20459;-69
2022/07/15 09:27:42;;;;;;;1.50;0.70;;;18.80;1.00;;;;;;5093810;28;20927;-70
2022/07/15 09:33:40;;;;;;;0.97;0.60;;;19.40;1.00;;;;;;5091828;28;20434;-76
2022/07/15 09:36:06;;;;;;;1.33;0.70;;;19.20;1.00;;;;;;5093465;28;20454;-71
2022/07/15 09:38:58;;;;;;;1.30;1.00;;;18.90;1.00;;;;;;5093808;28;20412;-76
2022/07/15 09:41:29;;;;;;;0.97;0.87;;;18.50;1.00;;;;;;5088743;28;20630;-73
2022/07/15 09:44:02;;;;;;;1.13;0.77;;;18.20;1.00;;;;;;5091171;28;20446;-77
2022/07/15 09:46:47;;;;;;;2.30;0.70;;;18.20;1.00;;;;;;5092399;28;20431;-69
2022/07/15 09:49:34;;;;;;;0.90;0.70;;;18.20;1.00;;;;;;5093752;28;20422;-76
2022/07/15 09:52:11;;;;;;;1.53;0.80;;;18.30;1.00;;;;;;5093414;28;20561;-75
2022/07/15 09:54:43;;;;;;;1.10;0.80;;;18.40;1.00;;;;;;5093483;28;20552;-69
2022/07/15 09:57:17;;;;;;;1.90;1.10;;;18.50;1.00;;;;;;5093429;28;20447;-75
2022/07/15 09:59:47;;;;;;;4.10;1.57;;;18.50;1.00;;;;;;5090873;28;20938;-75
2022/07/15 10:02:14;;;;;;;3.67;0.73;;;18.50;1.00;;;;;;5092396;28;20879;-71
2022/07/15 10:04:40;;;;;;;0.90;0.60;;;18.60;1.00;;;;;;5093427;28;20454;-75
2022/07/15 10:07:06;;;;;;;3.43;0.70;;;18.60;1.00;;;;;;5093283;28;20470;-76
2022/07/15 10:09:36;;;;;;;1.60;0.90;;;18.70;1.00;;;;;;5093253;28;20396;-70
2022/07/15 10:12:34;;;;;;;1.50;0.70;;;18.90;1.00;;;;;;5093073;28;20422;-71
2022/07/15 10:15:18;;;;;;;2.17;0.70;;;19.00;1.00;;;;;;5088561;28;20451;-70
2022/07/15 10:17:47;;;;;;;1.80;0.80;;;19.00;1.00;;;;;;5091297;28;20455;-76
2022/07/15 10:20:27;;;;;;;1.20;0.80;;;18.90;1.00;;;;;;5093025;28;20437;-76
2022/07/15 10:23:22;;;;;;;1.27;0.70;;;19.00;1.00;;;;;;5092195;28;20430;-76
2022/07/15 10:25:55;;;;;;;1.40;0.90;;;19.00;1.00;;;;;;5085573;28;20431;-72
2022/07/15 10:28:33;;;;;;;3.47;0.77;;;18.90;1.00;;;;;;5091746;28;20436;-70
2022/07/15 10:31:16;;;;;;;2.77;1.17;;;18.60;1.00;;;;;;5093069;28;20910;-76
2022/07/15 10:33:42;;;;;;;1.87;0.90;;;18.50;1.00;;;;;;5089945;28;20792;-71
2022/07/15 10:36:08;;;;;;;2.07;0.60;;;18.80;1.00;;;;;;5092829;28;20443;-71
2022/07/15 10:38:38;;;;;;;1.30;0.90;;;19.00;1.00;;;;;;5090246;28;20589;-76
2022/07/15 10:41:08;;;;;;;1.00;0.60;;;19.60;1.00;;;;;;5076968;28;20428;-70
2022/07/15 10:43:38;;;;;;;3.27;0.70;;;19.90;1.00;;;;;;5071849;28;20425;-76
2022/07/15 10:46:11;;;;;;;1.63;0.80;;;19.70;1.00;;;;;;5072761;28;20400;-75
2022/07/15 10:48:37;;;;;;;1.30;0.80;;;19.20;1.00;;;;;;5072756;28;20404;-76
2022/07/15 10:51:03;;;;;;;1.27;1.00;;;18.60;1.00;;;;;;5079025;28;20499;-70
2022/07/15 10:53:29;;;;;;;4.03;0.80;;;18.40;1.00;;;;;;5090874;28;20177;-75
2022/07/15 10:55:54;;;;;;;5.53;1.00;;;18.20;1.00;;;;;;5092872;28;20193;-70
2022/07/15 10:58:20;;;;;;;1.10;0.70;;;18.10;1.00;;;;;;5092880;28;20482;-77
2022/07/15 11:00:47;;;;;;;0.90;0.70;;;18.30;1.00;;;;;;5092749;28;20169;-75
2022/07/15 11:03:21;;;;;;;1.03;0.70;;;18.70;1.00;;;;;;5091977;28;20402;-70
2022/07/15 11:05:53;;;;;;;0.87;0.60;;;19.10;1.00;;;;;;5091548;28;20430;-72
2022/07/15 11:08:31;;;;;;;0.90;0.60;;;19.50;1.00;;;;;;5092677;28;20744;-70
2022/07/15 11:10:57;;;;;;;1.10;0.90;;;20.00;1.00;;;;;;5091806;28;20423;-70
2022/07/15 11:13:47;;;;;;;2.13;0.70;;;20.20;1.00;;;;;;5091557;28;20420;-75
2022/07/15 11:16:14;;;;;;;1.70;0.73;;;20.00;1.00;;;;;;5082430;28;20493;-71
2022/07/15 11:18:57;;;;;;;1.27;0.77;;;20.00;1.00;;;;;;5090149;28;20791;-71
2022/07/15 11:21:23;;;;;;;2.53;0.80;;;19.70;1.00;;;;;;5092642;28;20760;-74
2022/07/15 11:23:51;;;;;;;1.20;0.60;;;19.50;1.00;;;;;;5091645;28;20494;-70
2022/07/15 11:26:17;;;;;;;1.20;0.70;;;19.50;1.00;;;;;;5094442;28;20397;-77
2022/07/15 11:29:09;;;;;;;2.30;0.80;;;19.30;1.00;;;;;;5092830;28;20442;-71
2022/07/15 11:31:40;;;;;;;2.00;0.83;;;19.00;1.00;;;;;;5092335;28;20423;-70
2022/07/15 11:34:06;;;;;;;1.00;0.77;;;18.90;1.00;;;;;;5095238;28;20919;-76
2022/07/15 11:36:31;;;;;;;1.73;0.60;;;18.70;1.00;;;;;;5096143;28;20452;-70
2022/07/15 11:38:58;;;;;;;0.90;0.67;;;18.40;1.00;;;;;;5095918;28;20162;-70
2022/07/15 11:44:29;;;;;;;1.10;0.60;;;18.40;1.00;;;;;;5095210;28;20423;-76
2022/07/15 11:46:56;;;;;;;1.53;0.90;;;18.50;1.00;;;;;;5095028;28;20411;-71
2022/07/15 11:49:39;;;;;;;1.53;0.90;;;18.50;1.00;;;;;;5095853;28;20410;-76
2022/07/15 11:52:07;;;;;;;1.30;0.80;;;18.70;1.00;;;;;;5095517;28;20388;-70
2022/07/15 11:54:36;;;;;;;1.03;0.80;;;18.90;1.00;;;;;;5095145;28;20839;-76
2022/07/15 11:57:08;;;;;;;1.53;0.73;;;19.40;1.00;;;;;;5093926;28;20459;-76
2022/07/15 11:59:34;;;;;;;1.30;0.67;;;20.40;1.00;;;;;;5095660;28;20399;-76
2022/07/15 12:02:10;;;;;;;0.90;0.70;;;20.90;1.00;;;;;;5095192;28;20541;-72
2022/07/15 12:04:37;;;;;;;4.90;0.80;;;20.70;1.00;;;;;;5095051;28;20424;-76
2022/07/15 12:07:03;;;;;;;0.90;0.60;;;20.20;1.00;;;;;;5095440;28;20911;-70
2022/07/15 12:09:44;;;;;;;1.00;0.87;;;19.90;1.00;;;;;;5093191;28;20538;-74
2022/07/15 12:12:09;;;;;;;1.30;0.80;;;19.50;1.00;;;;;;5094860;28;20418;-72
2022/07/15 12:14:36;;;;;;;0.93;0.60;;;19.20;1.00;;;;;;5095179;28;20420;-74
2022/07/15 12:17:03;;;;;;;1.57;0.90;;;19.10;1.00;;;;;;5093844;28;20205;-75
2022/07/15 12:19:30;;;;;;;3.37;0.80;;;18.90;1.00;;;;;;5095180;28;20395;-70
2022/07/15 12:22:05;;;;;;;1.20;0.90;;;18.80;1.00;;;;;;5094290;28;20892;-70
2022/07/15 12:24:43;;;;;;;3.00;0.90;;;19.00;1.00;;;;;;5077348;28;20440;-69
2022/07/15 12:27:10;;;;;;;7.33;1.07;;;19.00;1.00;;;;;;5082889;28;20944;-74
2022/07/15 12:29:36;;;;;;;6.83;0.80;;;19.00;1.00;;;;;;5092943;28;20904;-69
2022/07/15 12:32:05;;;;;;;2.40;0.97;;;19.20;1.00;;;;;;5094792;28;20400;-74
2022/07/15 12:34:55;;;;;;;1.53;1.10;;;19.30;1.00;;;;;;5088325;28;20452;-70
2022/07/15 12:37:23;;;;;;;1.80;0.80;;;19.50;1.00;;;;;;5086333;28;20547;-71
2022/07/15 12:40:00;;;;;;;1.27;0.80;;;19.60;1.00;;;;;;5072677;28;20412;-77
2022/07/15 12:42:30;;;;;;;0.90;0.70;;;19.60;1.00;;;;;;5074649;28;20855;-76
2022/07/15 12:45:35;;;;;;;3.43;1.17;;;19.60;1.00;;;;;;5073925;28;20452;-69
2022/07/15 12:48:16;;;;;;;1.00;0.70;;;19.50;1.00;;;;;;5074483;28;20412;-75
2022/07/15 12:50:50;;;;;;;1.67;0.90;;;19.20;1.00;;;;;;5074372;28;20888;-72
2022/07/15 12:53:17;;;;;;;1.33;0.70;;;19.10;1.00;;;;;;5073461;28;20392;-70
2022/07/15 12:55:48;;;;;;;1.10;0.70;;;19.20;1.00;;;;;;5079214;28;20484;-70
2022/07/15 12:58:25;;;;;;;1.13;0.70;;;19.20;1.00;;;;;;5092096;28;20445;-75
2022/07/15 13:00:51;;;;;;;1.73;0.70;;;19.70;1.00;;;;;;5091989;28;20403;-76
2022/07/15 13:03:18;;;;;;;2.60;0.90;;;20.10;1.00;;;;;;5073321;28;20761;-71
2022/07/15 13:05:49;;;;;;;1.83;0.80;;;20.30;1.00;;;;;;5074019;28;20316;-70